createdAt,value
2018-01-28T00:02:11.378Z,32.30
2018-01-28T00:04:38.814Z,38.03
2018-01-28T00:07:06.294Z,39.70
2018-01-28T00:09:33.739Z,38.20
2018-01-28T00:12:01.240Z,35.70
2018-01-28T00:14:28.693Z,36.30
2018-01-28T00:16:56.243Z,34.03
2018-01-28T00:19:23.757Z,33.83
2018-01-28T00:21:51.193Z,35.40
2018-01-28T00:24:18.651Z,36.60
2018-01-28T00:26:46.119Z,38.10
2018-01-28T00:29:13.566Z,36.90
2018-01-28T00:31:41.019Z,33.43
2018-01-28T00:34:08.664Z,37.00
2018-01-28T00:36:36.119Z,34.60
2018-01-28T00:39:03.577Z,34.40
2018-01-28T00:41:31.019Z,35.57
2018-01-28T00:43:58.475Z,37.47
2018-01-28T00:46:25.908Z,30.13
2018-01-28T00:48:53.382Z,34.47
2018-01-28T00:51:20.825Z,32.57
2018-01-28T00:53:48.341Z,37.30
2018-01-28T00:56:15.768Z,37.67
2018-01-28T00:58:43.221Z,31.07
2018-01-28T01:01:10.671Z,35.27
2018-01-28T01:03:38.887Z,31.08
2018-01-28T01:06:06.317Z,32.13
2018-01-28T01:08:33.874Z,33.27
2018-01-28T01:11:01.318Z,28.83
2018-01-28T01:13:28.764Z,27.87
2018-01-28T01:15:56.246Z,27.92
2018-01-28T01:18:23.688Z,28.02
2018-01-28T01:20:51.153Z,27.83
2018-01-28T01:23:18.598Z,28.70
2018-01-28T01:25:46.065Z,27.10
2018-01-28T01:28:13.516Z,23.75
2018-01-28T01:30:41.930Z,25.30
2018-01-28T01:33:09.373Z,24.63
2018-01-28T01:35:36.864Z,28.03
2018-01-28T01:38:04.309Z,23.90
2018-01-28T01:40:31.795Z,26.27
2018-01-28T01:42:59.251Z,25.53
2018-01-28T01:45:26.709Z,21.33
2018-01-28T01:47:54.172Z,26.57
2018-01-28T01:50:21.681Z,27.00
2018-01-28T01:52:49.132Z,28.92
2018-01-28T01:55:16.956Z,28.20
2018-01-28T01:57:44.398Z,29.30
2018-01-28T02:00:11.871Z,29.40
2018-01-28T02:02:39.323Z,26.90
2018-01-28T02:05:06.782Z,29.30
2018-01-28T02:07:34.259Z,30.70
2018-01-28T02:10:01.701Z,24.70
2018-01-28T02:12:29.157Z,31.20
2018-01-28T02:14:56.605Z,28.33
2018-01-28T02:17:24.069Z,31.23
2018-01-28T02:19:51.504Z,29.20
2018-01-28T02:22:18.961Z,28.93
2018-01-28T02:24:46.403Z,26.47
2018-01-28T02:27:13.869Z,24.98
2018-01-28T02:29:41.334Z,23.13
2018-01-28T02:32:08.817Z,24.80
2018-01-28T02:34:36.262Z,24.00
2018-01-28T02:37:04.000Z,25.70
2018-01-28T02:39:31.440Z,30.00
2018-01-28T02:41:58.908Z,28.30
2018-01-28T02:44:26.348Z,26.70
2018-01-28T02:46:53.789Z,28.95
2018-01-28T02:49:21.304Z,27.42
2018-01-28T02:51:48.749Z,23.90
2018-01-28T02:54:16.210Z,28.40
2018-01-28T02:56:43.813Z,26.87
2018-01-28T02:59:11.273Z,25.33
2018-01-28T03:01:40.112Z,24.00
2018-01-28T03:04:07.563Z,19.70
2018-01-28T03:06:34.997Z,19.93
2018-01-28T03:09:02.446Z,15.57
2018-01-28T03:11:29.873Z,20.42
2018-01-28T03:13:57.325Z,15.87
2018-01-28T03:16:24.774Z,18.50
2018-01-28T03:18:52.230Z,16.40
2018-01-28T03:21:19.668Z,21.10
2018-01-28T03:23:47.137Z,21.27
2018-01-28T03:26:14.753Z,18.28
2018-01-28T03:28:42.334Z,19.33
2018-01-28T03:31:09.761Z,18.87
2018-01-28T03:33:37.207Z,12.60
2018-01-28T03:36:04.662Z,16.50
2018-01-28T03:38:32.136Z,15.47
2018-01-28T03:40:59.613Z,14.47
2018-01-28T03:43:28.438Z,13.23
2018-01-28T03:45:55.898Z,14.13
2018-01-28T03:48:23.335Z,12.27
2018-01-28T03:50:50.786Z,10.43
2018-01-28T03:53:18.218Z,10.10
2018-01-28T03:55:45.670Z,11.67
2018-01-28T03:58:13.108Z,11.50
2018-01-28T04:00:40.541Z,9.13
2018-01-28T04:03:08.144Z,9.50
2018-01-28T04:05:35.604Z,8.73
2018-01-28T04:08:03.024Z,9.40
2018-01-28T04:10:30.486Z,9.70
2018-01-28T04:12:57.924Z,9.23
2018-01-28T04:15:25.362Z,9.50
2018-01-28T04:17:52.798Z,8.27
2018-01-28T04:20:20.333Z,9.17
2018-01-28T04:22:47.762Z,9.27
2018-01-28T04:25:15.237Z,9.43
2018-01-28T04:27:42.692Z,8.70
2018-01-28T04:30:10.122Z,9.00
2018-01-28T04:32:37.577Z,7.97
2018-01-28T04:35:05.110Z,7.67
2018-01-28T04:37:32.642Z,7.40
2018-01-28T04:40:00.143Z,9.53
2018-01-28T04:42:27.579Z,7.53
2018-01-28T04:44:55.005Z,8.90
2018-01-28T04:47:22.457Z,8.27
2018-01-28T04:49:49.895Z,6.97
2018-01-28T04:52:17.369Z,6.60
2018-01-28T04:54:44.810Z,6.78
2018-01-28T04:57:12.279Z,7.10
2018-01-28T04:59:39.719Z,6.23
2018-01-28T05:02:07.179Z,10.57
2018-01-28T05:04:34.608Z,5.80
2018-01-28T05:07:02.083Z,10.00
2018-01-28T05:09:29.507Z,7.53
2018-01-28T05:11:56.917Z,8.30
2018-01-28T05:14:24.365Z,8.38
2018-01-28T05:16:51.814Z,7.87
2018-01-28T05:19:19.273Z,10.80
2018-01-28T05:21:46.737Z,8.10
2018-01-28T05:24:14.225Z,10.33
2018-01-28T05:26:41.652Z,9.23
2018-01-28T05:29:09.698Z,10.70
2018-01-28T05:31:37.328Z,8.57
2018-01-28T05:34:04.792Z,9.50
2018-01-28T05:36:32.219Z,8.60
2018-01-28T05:38:59.671Z,9.20
2018-01-28T05:41:27.127Z,10.40
2018-01-28T05:43:54.629Z,11.50
2018-01-28T05:46:22.045Z,12.77
2018-01-28T05:48:49.506Z,13.80
2018-01-28T05:51:16.965Z,11.50
2018-01-28T05:53:44.460Z,9.93
2018-01-28T05:56:11.932Z,10.87
2018-01-28T05:58:39.741Z,11.57
2018-01-28T06:01:07.176Z,15.87
2018-01-28T06:03:34.612Z,14.97
2018-01-28T06:06:02.071Z,12.60
2018-01-28T06:08:29.616Z,11.30
2018-01-28T06:10:57.086Z,11.13
2018-01-28T06:13:24.512Z,12.23
2018-01-28T06:15:51.960Z,12.23
2018-01-28T06:18:19.400Z,11.52
2018-01-28T06:20:46.849Z,13.03
2018-01-28T06:23:14.281Z,14.67
2018-01-28T06:25:41.775Z,9.47
2018-01-28T06:28:10.068Z,11.55
2018-01-28T06:30:37.502Z,13.13
2018-01-28T06:33:04.947Z,11.10
2018-01-28T06:35:32.373Z,9.47
2018-01-28T06:37:59.810Z,8.50
2018-01-28T06:40:27.233Z,9.23
2018-01-28T06:42:54.684Z,10.37
2018-01-28T06:45:22.169Z,10.90
2018-01-28T06:47:49.668Z,8.70
2018-01-28T06:50:17.132Z,8.50
2018-01-28T06:52:45.069Z,8.20
2018-01-28T06:55:12.501Z,9.13
2018-01-28T06:57:40.206Z,8.93
2018-01-28T07:00:07.620Z,8.43
2018-01-28T07:02:35.098Z,7.80
2018-01-28T07:05:02.520Z,10.03
2018-01-28T07:07:29.999Z,9.80
2018-01-28T07:09:57.453Z,10.80
2018-01-28T07:12:24.892Z,11.17
2018-01-28T07:14:52.321Z,7.40
2018-01-28T07:17:19.876Z,8.57
2018-01-28T07:19:47.377Z,9.57
2018-01-28T07:22:14.808Z,7.00
2018-01-28T07:24:42.255Z,8.55
2018-01-28T07:27:11.041Z,6.68
2018-01-28T07:29:38.721Z,6.30
2018-01-28T07:32:06.738Z,6.93
2018-01-28T07:34:34.177Z,7.63
2018-01-28T07:37:01.589Z,8.73
2018-01-28T07:39:29.033Z,6.50
2018-01-28T07:41:56.445Z,6.00
2018-01-28T07:44:23.953Z,7.90
2018-01-28T07:46:51.396Z,7.22
2018-01-28T07:49:18.877Z,6.60
2018-01-28T07:51:46.319Z,7.65
2018-01-28T07:54:13.756Z,6.77
2018-01-28T07:56:41.179Z,7.97
2018-01-28T07:59:09.782Z,6.77
2018-01-28T08:01:37.293Z,9.00
2018-01-28T08:04:04.828Z,6.97
2018-01-28T08:06:32.290Z,8.73
2018-01-28T08:09:00.210Z,5.80
2018-01-28T08:11:33.342Z,6.97
2018-01-28T08:14:03.228Z,6.73
2018-01-28T08:16:30.653Z,6.23
2018-01-28T08:18:58.068Z,6.33
2018-01-28T08:21:25.521Z,5.90
2018-01-28T08:23:52.933Z,5.10
2018-01-28T08:26:26.317Z,4.03
2018-01-28T08:28:59.306Z,5.60
2018-01-28T08:31:26.769Z,7.37
2018-01-28T08:33:54.330Z,6.85
2018-01-28T08:36:21.798Z,5.90
2018-01-28T08:38:49.232Z,4.23
2018-01-28T08:41:21.661Z,5.03
2018-01-28T08:43:49.094Z,4.33
2018-01-28T08:46:16.754Z,4.00
2018-01-28T08:48:44.225Z,5.00
2018-01-28T08:51:11.679Z,3.60
2018-01-28T08:53:39.124Z,5.00
2018-01-28T08:56:06.657Z,3.40
2018-01-28T08:58:34.092Z,3.27
2018-01-28T09:01:01.934Z,3.57
2018-01-28T09:03:29.369Z,3.67
2018-01-28T09:05:56.786Z,3.17
2018-01-28T09:08:24.236Z,3.57
2018-01-28T09:10:51.670Z,3.50
2018-01-28T09:13:19.122Z,3.83
2018-01-28T09:15:46.544Z,3.13
2018-01-28T09:18:14.179Z,3.33
2018-01-28T09:20:41.611Z,3.40
2018-01-28T09:23:09.175Z,3.20
2018-01-28T09:25:36.606Z,2.20
2018-01-28T09:28:04.091Z,4.00
2018-01-28T09:30:31.523Z,2.70
2018-01-28T09:32:58.974Z,2.63
2018-01-28T09:35:26.405Z,2.60
2018-01-28T09:37:53.853Z,3.03
2018-01-28T09:40:21.284Z,3.40
2018-01-28T09:42:48.733Z,3.07
2018-01-28T09:45:16.206Z,3.50
2018-01-28T09:47:44.165Z,4.18
2018-01-28T09:50:12.140Z,3.22
2018-01-28T09:52:39.603Z,3.30
2018-01-28T09:55:07.036Z,3.50
2018-01-28T09:57:34.466Z,3.17
2018-01-28T10:00:01.903Z,3.47
2018-01-28T10:02:29.321Z,3.05
2018-01-28T10:04:56.784Z,2.60
2018-01-28T10:07:24.240Z,3.10
2018-01-28T10:09:52.486Z,2.90
2018-01-28T10:12:19.929Z,2.70
2018-01-28T10:14:47.388Z,2.63
2018-01-28T10:17:15.215Z,2.60
2018-01-28T10:19:42.725Z,3.43
2018-01-28T10:22:11.134Z,2.80
2018-01-28T10:24:38.613Z,3.23
2018-01-28T10:27:06.041Z,2.42
2018-01-28T10:29:33.494Z,3.67
2018-01-28T10:32:00.973Z,2.70
2018-01-28T10:34:28.521Z,2.80
2018-01-28T10:36:55.964Z,2.03
2018-01-28T10:39:23.422Z,2.60
2018-01-28T10:41:50.849Z,3.23
2018-01-28T10:44:18.343Z,3.00
2018-01-28T10:46:45.907Z,3.13
2018-01-28T10:49:13.342Z,3.20
2018-01-28T10:51:41.261Z,2.87
2018-01-28T10:54:08.719Z,3.20
2018-01-28T10:56:37.235Z,3.40
2018-01-28T10:59:04.676Z,2.97
2018-01-28T11:01:32.122Z,2.33
2018-01-28T11:03:59.560Z,2.70
2018-01-28T11:06:27.008Z,4.27
2018-01-28T11:08:54.438Z,2.30
2018-01-28T11:11:21.932Z,2.50
2018-01-28T11:13:49.396Z,3.03
2018-01-28T11:16:16.930Z,3.20
2018-01-28T11:18:44.386Z,2.77
2018-01-28T11:21:11.873Z,2.70
2018-01-28T11:23:39.391Z,2.13
2018-01-28T11:26:06.829Z,2.20
2018-01-28T11:28:34.259Z,2.50
2018-01-28T11:31:01.696Z,2.40
2018-01-28T11:33:29.114Z,2.67
2018-01-28T11:35:56.555Z,2.77
2018-01-28T11:38:24.016Z,1.77
2018-01-28T11:40:51.473Z,2.33
2018-01-28T11:43:19.072Z,2.67
2018-01-28T11:45:46.516Z,2.60
2018-01-28T11:48:13.939Z,2.27
2018-01-28T11:50:41.641Z,2.53
2018-01-28T11:53:09.085Z,2.70
2018-01-28T11:55:36.532Z,2.25
2018-01-28T11:58:03.969Z,3.50
2018-01-28T12:00:31.388Z,3.40
2018-01-28T12:02:58.820Z,5.83
2018-01-28T12:05:26.241Z,2.40
2018-01-28T12:07:53.695Z,2.73
2018-01-28T12:10:21.138Z,2.90
2018-01-28T12:12:48.578Z,2.63
2018-01-28T12:15:15.996Z,2.97
2018-01-28T12:17:43.436Z,3.20
2018-01-28T12:20:11.773Z,3.83
2018-01-28T12:22:39.258Z,5.07
2018-01-28T12:25:06.729Z,3.97
2018-01-28T12:27:34.167Z,3.73
2018-01-28T12:30:01.680Z,3.47
2018-01-28T12:32:30.783Z,2.93
2018-01-28T12:34:58.229Z,5.60
2018-01-28T12:37:25.641Z,2.67
2018-01-28T12:39:53.097Z,4.47
2018-01-28T12:42:20.542Z,3.45
2018-01-28T12:44:48.049Z,2.63
2018-01-28T12:47:16.211Z,2.85
2018-01-28T12:49:43.659Z,2.60
2018-01-28T12:52:11.894Z,3.05
2018-01-28T12:54:39.504Z,3.67
2018-01-28T12:57:06.935Z,2.90
2018-01-28T12:59:34.378Z,2.40
2018-01-28T13:02:01.804Z,2.60
2018-01-28T13:04:29.245Z,3.00
2018-01-28T13:06:56.694Z,3.37
2018-01-28T13:09:24.133Z,2.58
2018-01-28T13:11:51.584Z,5.12
2018-01-28T13:14:19.001Z,2.80
2018-01-28T13:16:46.453Z,1.93
2018-01-28T13:19:13.884Z,3.00
2018-01-28T13:21:42.086Z,3.00
2018-01-28T13:24:09.518Z,2.40
2018-01-28T13:26:36.981Z,4.57
2018-01-28T13:29:04.425Z,2.97
2018-01-28T13:31:31.938Z,2.90
2018-01-28T13:33:59.369Z,1.90
2018-01-28T13:36:26.821Z,3.43
2018-01-28T13:38:54.283Z,1.80
2018-01-28T13:41:21.781Z,2.50
2018-01-28T13:43:49.240Z,2.23
2018-01-28T13:46:16.702Z,2.40
2018-01-28T13:48:49.613Z,2.40
2018-01-28T13:51:20.843Z,3.10
2018-01-28T13:53:48.509Z,4.40
2018-01-28T13:56:15.966Z,4.23
2018-01-28T13:58:43.429Z,2.83
2018-01-28T14:01:10.996Z,3.00
2018-01-28T14:03:38.438Z,2.57
2018-01-28T14:06:06.134Z,2.80
2018-01-28T14:08:33.599Z,2.70
2018-01-28T14:11:01.059Z,2.17
2018-01-28T14:13:29.158Z,2.40
2018-01-28T14:15:56.631Z,1.70
2018-01-28T14:18:24.081Z,2.50
2018-01-28T14:20:51.511Z,2.67
2018-01-28T14:23:20.749Z,2.97
2018-01-28T14:25:49.751Z,2.37
2018-01-28T14:28:17.264Z,1.85
2018-01-28T14:30:44.719Z,2.20
2018-01-28T14:33:12.600Z,2.25
2018-01-28T14:35:40.033Z,2.30
2018-01-28T14:38:07.461Z,1.90
2018-01-28T14:40:34.901Z,2.57
2018-01-28T14:43:02.337Z,2.53
2018-01-28T14:45:29.820Z,2.20
2018-01-28T14:47:57.259Z,3.27
2018-01-28T14:50:24.706Z,2.70
2018-01-28T14:52:52.131Z,2.10
2018-01-28T14:55:19.568Z,1.83
2018-01-28T14:57:46.980Z,2.63
2018-01-28T15:00:14.429Z,2.60
2018-01-28T15:02:42.588Z,2.50
2018-01-28T15:05:10.139Z,2.37
2018-01-28T15:07:37.572Z,2.20
2018-01-28T15:10:05.028Z,4.33
2018-01-28T15:12:32.474Z,4.53
2018-01-28T15:15:00.154Z,3.43
2018-01-28T15:17:27.641Z,2.95
2018-01-28T15:19:55.072Z,2.63
2018-01-28T15:22:22.549Z,2.80
2018-01-28T15:24:49.968Z,3.30
2018-01-28T15:27:17.454Z,2.43
2018-01-28T15:29:44.871Z,2.27
2018-01-28T15:32:12.837Z,2.60
2018-01-28T15:34:40.260Z,2.57
2018-01-28T15:37:07.714Z,2.35
2018-01-28T15:39:35.136Z,3.10
2018-01-28T15:42:02.568Z,2.30
2018-01-28T15:44:30.098Z,2.30
2018-01-28T15:46:57.548Z,2.83
2018-01-28T15:49:24.999Z,2.97
2018-01-28T15:51:52.473Z,3.43
2018-01-28T15:54:19.896Z,2.93
2018-01-28T15:56:47.350Z,3.03
2018-01-28T15:59:15.230Z,3.20
2018-01-28T16:01:42.953Z,2.72
2018-01-28T16:04:10.426Z,3.00
2018-01-28T16:06:37.850Z,4.28
2018-01-28T16:09:05.287Z,1.97
2018-01-28T16:11:32.797Z,3.53
2018-01-28T16:14:00.313Z,4.70
2018-01-28T16:16:27.773Z,2.80
2018-01-28T16:18:55.214Z,3.12
2018-01-28T16:21:22.646Z,2.80
2018-01-28T16:23:50.089Z,3.60
2018-01-28T16:26:17.540Z,5.07
2018-01-28T16:28:45.014Z,2.85
2018-01-28T16:31:13.128Z,3.00
2018-01-28T16:33:41.453Z,3.40
2018-01-28T16:36:08.886Z,2.60
2018-01-28T16:38:36.367Z,4.63
2018-01-28T16:41:03.795Z,4.70
2018-01-28T16:43:31.220Z,4.50
2018-01-28T16:45:58.653Z,2.70
2018-01-28T16:48:26.132Z,4.05
2018-01-28T16:50:53.937Z,3.70
2018-01-28T16:53:21.434Z,4.73
2018-01-28T16:55:48.871Z,3.90
2018-01-28T16:58:16.288Z,3.30
2018-01-28T17:00:43.764Z,4.10
2018-01-28T17:03:11.188Z,4.10
2018-01-28T17:05:38.628Z,4.63
2018-01-28T17:08:06.196Z,3.17
2018-01-28T17:10:33.628Z,3.60
2018-01-28T17:13:01.057Z,3.07
2018-01-28T17:15:28.506Z,3.23
2018-01-28T17:17:55.941Z,4.60
2018-01-28T17:20:23.388Z,4.15
2018-01-28T17:22:50.830Z,4.80
2018-01-28T17:25:18.294Z,3.58
2018-01-28T17:27:45.746Z,3.00
2018-01-28T17:30:13.549Z,3.55
2018-01-28T17:32:41.079Z,2.80
2018-01-28T17:35:14.134Z,4.03
2018-01-28T17:37:42.391Z,3.40
2018-01-28T17:40:09.928Z,3.00
2018-01-28T17:42:37.433Z,2.53
2018-01-28T17:45:04.896Z,3.13
2018-01-28T17:47:32.346Z,2.50
2018-01-28T17:49:59.816Z,2.93
2018-01-28T17:52:27.251Z,2.50
2018-01-28T17:54:54.713Z,3.17
2018-01-28T17:57:22.162Z,3.30
2018-01-28T17:59:49.601Z,6.55
2018-01-28T18:02:17.107Z,3.87
2018-01-28T18:04:44.741Z,2.80
2018-01-28T18:07:12.252Z,2.70
2018-01-28T18:09:39.677Z,2.97
2018-01-28T18:12:07.238Z,2.80
2018-01-28T18:14:34.652Z,4.00
2018-01-28T18:17:02.080Z,4.20
2018-01-28T18:19:29.513Z,3.50
2018-01-28T18:21:57.024Z,5.50
2018-01-28T18:24:24.436Z,5.10
2018-01-28T18:26:51.881Z,4.90
2018-01-28T18:29:19.320Z,3.77
2018-01-28T18:31:46.769Z,4.10
2018-01-28T18:34:14.190Z,3.17
2018-01-28T18:36:41.676Z,3.80
2018-01-28T18:39:09.139Z,7.70
2018-01-28T18:41:36.724Z,3.30
2018-01-28T18:44:04.191Z,4.43
2018-01-28T18:46:31.678Z,3.70
2018-01-28T18:48:59.156Z,2.97
2018-01-28T18:51:26.649Z,5.90
2018-01-28T18:53:54.089Z,3.33
2018-01-28T18:56:21.510Z,8.97
2018-01-28T18:58:48.954Z,5.80
2018-01-28T19:01:16.385Z,11.07
2018-01-28T19:03:43.872Z,4.77
2018-01-28T19:06:11.339Z,6.63
2018-01-28T19:08:38.818Z,4.82
2018-01-28T19:11:06.275Z,4.03
2018-01-28T19:13:33.769Z,4.10
2018-01-28T19:16:01.194Z,3.73
2018-01-28T19:18:28.650Z,5.00
2018-01-28T19:20:56.360Z,4.10
2018-01-28T19:23:23.838Z,5.10
2018-01-28T19:25:51.346Z,5.83
2018-01-28T19:28:19.821Z,5.90
2018-01-28T19:30:47.270Z,5.27
2018-01-28T19:33:14.748Z,5.57
2018-01-28T19:35:42.202Z,5.00
2018-01-28T19:38:09.660Z,5.60
2018-01-28T19:40:37.081Z,5.30
2018-01-28T19:43:04.532Z,5.30
2018-01-28T19:45:32.083Z,6.13
2018-01-28T19:47:59.693Z,6.47
2018-01-28T19:50:27.237Z,5.40
2018-01-28T19:52:55.390Z,6.47
2018-01-28T19:55:22.814Z,7.30
2018-01-28T19:57:50.712Z,6.10
2018-01-28T20:00:18.175Z,6.30
2018-01-28T20:02:45.600Z,7.00
2018-01-28T20:05:14.124Z,7.93
2018-01-28T20:07:41.642Z,7.47
2018-01-28T20:10:11.937Z,8.03
2018-01-28T20:12:39.394Z,8.50
2018-01-28T20:15:06.868Z,7.03
2018-01-28T20:17:34.276Z,9.67
2018-01-28T20:20:01.732Z,6.25
2018-01-28T20:22:29.182Z,5.37
2018-01-28T20:24:56.663Z,6.67
2018-01-28T20:27:24.101Z,6.10
2018-01-28T20:29:51.571Z,6.20
2018-01-28T20:32:19.004Z,5.90
2018-01-28T20:34:46.570Z,3.97
2018-01-28T20:37:14.310Z,4.97
2018-01-28T20:39:41.825Z,3.73
2018-01-28T20:42:09.258Z,5.50
2018-01-28T20:44:36.693Z,4.47
2018-01-28T20:47:04.116Z,4.65
2018-01-28T20:49:31.555Z,4.30
2018-01-28T20:51:58.993Z,4.57
2018-01-28T20:54:26.531Z,4.20
2018-01-28T20:56:53.969Z,4.68
2018-01-28T20:59:21.390Z,4.03
2018-01-28T21:01:48.832Z,4.27
2018-01-28T21:04:16.316Z,4.37
2018-01-28T21:06:44.868Z,3.37
2018-01-28T21:09:12.313Z,4.10
2018-01-28T21:11:39.754Z,5.97
2018-01-28T21:14:07.194Z,4.70
2018-01-28T21:16:34.673Z,3.97
2018-01-28T21:19:02.080Z,4.23
2018-01-28T21:21:29.518Z,3.87
2018-01-28T21:23:56.945Z,4.67
2018-01-28T21:26:24.398Z,7.10
2018-01-28T21:28:51.831Z,4.23
2018-01-28T21:31:19.256Z,6.30
2018-01-28T21:33:46.716Z,4.10
2018-01-28T21:36:14.545Z,5.82
2018-01-28T21:38:42.267Z,5.07
2018-01-28T21:41:09.727Z,9.20
2018-01-28T21:43:37.197Z,4.00
2018-01-28T21:46:04.637Z,5.60
2018-01-28T21:48:34.212Z,4.27
2018-01-28T21:51:01.804Z,3.90
2018-01-28T21:53:29.513Z,4.40
2018-01-28T21:55:57.049Z,4.43
2018-01-28T21:58:24.503Z,4.63
2018-01-28T22:00:51.958Z,4.07
2018-01-28T22:03:19.400Z,3.85
2018-01-28T22:05:46.815Z,3.40
2018-01-28T22:08:14.669Z,4.18
2018-01-28T22:10:42.108Z,5.10
2018-01-28T22:13:09.660Z,4.62
2018-01-28T22:15:37.156Z,4.50
2018-01-28T22:18:04.590Z,3.22
2018-01-28T22:20:32.206Z,4.13
2018-01-28T22:22:59.632Z,4.47
2018-01-28T22:25:27.060Z,3.77
2018-01-28T22:27:54.476Z,4.77
2018-01-28T22:30:21.916Z,4.30
2018-01-28T22:32:49.345Z,3.83
2018-01-28T22:35:16.802Z,4.10
2018-01-28T22:37:44.749Z,4.00
2018-01-28T22:40:12.219Z,3.80
2018-01-28T22:42:39.780Z,3.77
2018-01-28T22:45:07.244Z,4.80
2018-01-28T22:47:34.680Z,3.55
2018-01-28T22:50:02.155Z,3.25
2018-01-28T22:52:29.720Z,3.50
2018-01-28T22:54:57.164Z,2.90
2018-01-28T22:57:24.609Z,3.10
2018-01-28T22:59:52.049Z,3.80
2018-01-28T23:02:19.470Z,3.80
2018-01-28T23:04:46.929Z,4.18
2018-01-28T23:07:14.910Z,3.15
2018-01-28T23:09:42.370Z,4.73
2018-01-28T23:12:09.812Z,3.57
2018-01-28T23:14:49.697Z,2.80
2018-01-28T23:17:22.838Z,3.57
2018-01-28T23:19:50.676Z,3.10
2018-01-28T23:22:18.134Z,3.00
2018-01-28T23:24:45.573Z,3.13
2018-01-28T23:27:13.013Z,3.27
2018-01-28T23:29:40.444Z,3.17
2018-01-28T23:32:08.021Z,3.47
2018-01-28T23:34:35.473Z,3.30
2018-01-28T23:37:02.960Z,3.00
2018-01-28T23:39:30.541Z,3.10
2018-01-28T23:41:57.973Z,3.50
2018-01-28T23:44:25.423Z,3.30
2018-01-28T23:46:53.008Z,2.73
2018-01-28T23:49:20.518Z,3.47
2018-01-28T23:51:47.978Z,2.27
2018-01-28T23:54:15.454Z,2.70
2018-01-28T23:56:43.021Z,2.13
2018-01-28T23:59:11.007Z,2.30
